createdAt,value
2018-05-23T00:04:07.848Z,7.30
2018-05-23T00:09:04.776Z,6.30
2018-05-23T00:14:00.661Z,9.00
2018-05-23T00:18:56.503Z,9.40
2018-05-23T00:23:52.364Z,6.07
2018-05-23T00:28:48.253Z,6.97
2018-05-23T00:33:44.225Z,6.67
2018-05-23T00:38:40.082Z,7.57
2018-05-23T00:43:35.970Z,7.47
2018-05-23T00:48:31.855Z,7.77
2018-05-23T00:53:27.758Z,7.33
2018-05-23T00:58:23.605Z,6.73
2018-05-23T01:03:19.539Z,7.33
2018-05-23T01:08:15.408Z,9.60
2018-05-23T01:13:11.309Z,9.27
2018-05-23T01:18:07.199Z,7.17
2018-05-23T01:23:03.073Z,12.33
2018-05-23T01:27:58.954Z,9.30
2018-05-23T01:32:54.865Z,8.17
2018-05-23T01:37:50.717Z,9.50
2018-05-23T01:42:46.637Z,8.40
2018-05-23T01:47:42.563Z,8.10
2018-05-23T01:52:38.410Z,9.37
2018-05-23T01:57:34.281Z,9.77
2018-05-23T02:02:30.233Z,8.70
2018-05-23T02:07:26.114Z,10.23
2018-05-23T02:12:22.010Z,8.60
2018-05-23T02:17:17.900Z,9.80
2018-05-23T02:22:13.783Z,8.20
2018-05-23T02:27:09.689Z,8.87
2018-05-23T02:32:05.592Z,13.57
2018-05-23T02:37:01.468Z,8.43
2018-05-23T02:41:57.348Z,9.07
2018-05-23T02:46:53.263Z,9.73
2018-05-23T02:51:49.167Z,9.03
2018-05-23T02:56:45.085Z,10.03
2018-05-23T03:01:40.957Z,8.73
2018-05-23T03:06:36.811Z,9.30
2018-05-23T03:11:32.711Z,8.70
2018-05-23T03:16:28.571Z,8.97
2018-05-23T03:21:24.489Z,9.13
2018-05-23T03:26:20.339Z,9.73
2018-05-23T03:31:16.177Z,9.07
2018-05-23T03:36:12.039Z,10.70
2018-05-23T03:41:07.951Z,9.60
2018-05-23T03:46:03.850Z,10.07
2018-05-23T03:50:59.751Z,10.90
2018-05-23T03:55:55.651Z,11.23
2018-05-23T04:00:57.786Z,14.77
2018-05-23T04:05:59.635Z,9.63
2018-05-23T04:10:55.497Z,12.23
2018-05-23T04:15:51.361Z,9.20
2018-05-23T04:20:47.241Z,11.10
2018-05-23T04:25:43.140Z,9.80
2018-05-23T04:30:39.014Z,9.80
2018-05-23T04:35:34.883Z,10.00
2018-05-23T04:40:30.756Z,9.80
2018-05-23T04:45:26.635Z,10.57
2018-05-23T04:50:22.535Z,11.27
2018-05-23T04:55:18.406Z,10.20
2018-05-23T05:00:14.315Z,10.90
2018-05-23T05:05:10.163Z,10.17
2018-05-23T05:10:06.139Z,12.27
2018-05-23T05:15:01.962Z,14.80
2018-05-23T05:19:57.851Z,13.60
2018-05-23T05:24:53.809Z,12.00
2018-05-23T05:29:49.658Z,13.53
2018-05-23T05:34:45.547Z,11.57
2018-05-23T05:39:41.431Z,11.93
2018-05-23T05:44:37.302Z,12.73
2018-05-23T05:49:33.187Z,13.27
2018-05-23T05:54:29.044Z,14.40
2018-05-23T05:59:24.930Z,14.23
2018-05-23T06:04:20.818Z,14.57
2018-05-23T06:09:16.667Z,15.67
2018-05-23T06:14:12.533Z,15.23
2018-05-23T06:19:08.412Z,14.73
2018-05-23T06:24:04.296Z,15.83
2018-05-23T06:29:00.140Z,18.03
2018-05-23T06:33:56.042Z,16.53
2018-05-23T06:38:51.899Z,15.27
2018-05-23T06:43:47.781Z,15.20
2018-05-23T06:48:43.658Z,15.77
2018-05-23T06:53:39.495Z,14.47
2018-05-23T06:58:35.347Z,17.10
2018-05-23T07:03:31.260Z,13.75
2018-05-23T07:08:27.171Z,14.68
2018-05-23T07:13:23.009Z,14.60
2018-05-23T07:18:18.887Z,14.63
2018-05-23T07:23:14.783Z,13.95
2018-05-23T07:28:10.665Z,14.15
2018-05-23T07:33:06.567Z,15.10
2018-05-23T07:38:02.446Z,14.30
2018-05-23T07:42:58.315Z,13.35
2018-05-23T07:47:54.220Z,13.02
2018-05-23T07:52:50.095Z,16.37
2018-05-23T07:57:45.963Z,13.82
2018-05-23T08:02:41.848Z,12.80
2018-05-23T08:07:37.731Z,14.15
2018-05-23T08:12:33.636Z,13.35
2018-05-23T08:17:29.548Z,12.20
2018-05-23T08:22:25.455Z,13.68
2018-05-23T08:27:21.333Z,11.27
2018-05-23T08:32:17.200Z,12.63
2018-05-23T08:37:13.101Z,10.90
2018-05-23T08:42:08.950Z,15.82
2018-05-23T08:47:04.848Z,10.45
2018-05-23T08:52:00.707Z,9.85
2018-05-23T08:56:56.620Z,10.82
2018-05-23T09:01:52.531Z,11.18
2018-05-23T09:06:48.440Z,10.35
2018-05-23T09:11:44.346Z,9.38
2018-05-23T09:16:41.191Z,12.48
2018-05-23T09:21:37.130Z,9.30
2018-05-23T09:26:33.067Z,10.52
2018-05-23T09:31:28.955Z,8.65
2018-05-23T09:36:24.823Z,9.23
2018-05-23T09:41:20.712Z,9.15
2018-05-23T09:46:16.629Z,9.30
2018-05-23T09:51:12.512Z,10.43
2018-05-23T09:56:08.385Z,8.68
2018-05-23T10:01:04.273Z,10.43
2018-05-23T10:06:00.135Z,7.95
2018-05-23T10:10:56.018Z,8.03
2018-05-23T10:15:51.941Z,9.25
2018-05-23T10:20:47.796Z,10.30
2018-05-23T10:25:43.690Z,9.00
2018-05-23T10:30:39.559Z,9.82
2018-05-23T10:35:35.423Z,13.90
2018-05-23T10:40:31.299Z,11.00
2018-05-23T10:45:27.211Z,13.10
2018-05-23T10:50:23.085Z,7.68
2018-05-23T10:55:18.977Z,7.95
2018-05-23T11:00:14.924Z,13.13
2018-05-23T11:05:10.795Z,8.40
2018-05-23T11:10:06.677Z,10.35
2018-05-23T11:15:02.695Z,8.30
2018-05-23T11:19:58.491Z,8.13
2018-05-23T11:24:54.394Z,7.62
2018-05-23T11:29:50.316Z,7.25
2018-05-23T11:34:46.158Z,11.43
2018-05-23T11:39:42.007Z,6.60
2018-05-23T11:44:37.867Z,6.62
2018-05-23T11:49:33.759Z,8.77
2018-05-23T11:54:29.646Z,8.85
2018-05-23T11:59:25.579Z,7.93
2018-05-23T12:04:21.494Z,7.18
2018-05-23T12:09:17.375Z,7.00
2018-05-23T12:14:13.269Z,8.50
2018-05-23T12:19:09.149Z,6.22
2018-05-23T12:24:05.032Z,8.45
2018-05-23T12:29:00.869Z,9.55
2018-05-23T12:33:56.774Z,8.10
2018-05-23T12:38:52.654Z,8.07
2018-05-23T12:43:48.532Z,10.70
2018-05-23T12:48:44.514Z,10.57
2018-05-23T12:53:40.502Z,11.90
2018-05-23T12:58:36.387Z,10.15
2018-05-23T13:03:32.287Z,10.38
2018-05-23T13:08:28.165Z,10.15
2018-05-23T13:13:24.047Z,13.55
2018-05-23T13:18:19.907Z,11.15
2018-05-23T13:23:15.774Z,12.50
2018-05-23T13:28:11.633Z,11.45
2018-05-23T13:33:07.551Z,14.38
2018-05-23T13:38:03.451Z,15.38
2018-05-23T13:42:59.346Z,14.10
2018-05-23T13:47:55.236Z,15.07
2018-05-23T13:52:51.139Z,14.00
2018-05-23T13:57:47.025Z,12.93
2018-05-23T14:02:42.922Z,12.32
2018-05-23T14:07:38.838Z,16.70
2018-05-23T14:12:34.717Z,17.95
2018-05-23T14:17:30.594Z,14.05
2018-05-23T14:22:26.489Z,14.77
2018-05-23T14:27:22.379Z,9.88
2018-05-23T14:32:18.278Z,10.30
2018-05-23T14:37:14.150Z,13.55
2018-05-23T14:42:10.018Z,12.37
2018-05-23T14:47:05.912Z,11.95
2018-05-23T14:52:01.785Z,10.00
2018-05-23T14:56:57.824Z,11.20
2018-05-23T15:01:53.711Z,9.43
2018-05-23T15:06:49.629Z,10.55
2018-05-23T15:11:45.520Z,17.08
2018-05-23T15:16:41.414Z,10.23
2018-05-23T15:21:37.275Z,10.32
2018-05-23T15:26:33.146Z,11.80
2018-05-23T15:31:29.056Z,12.50
2018-05-23T15:36:24.982Z,13.05
2018-05-23T15:41:20.873Z,10.98
2018-05-23T15:46:16.769Z,13.20
2018-05-23T15:51:12.670Z,13.50
2018-05-23T15:56:08.580Z,15.43
2018-05-23T16:01:04.520Z,18.55
2018-05-23T16:06:00.404Z,13.02
2018-05-23T16:10:56.299Z,9.88
2018-05-23T16:15:52.189Z,13.48
2018-05-23T16:20:48.110Z,10.65
2018-05-23T16:25:43.968Z,9.30
2018-05-23T16:30:39.863Z,12.10
2018-05-23T16:35:35.763Z,10.48
2018-05-23T16:40:31.674Z,9.95
2018-05-23T16:45:27.559Z,9.93
2018-05-23T16:50:23.457Z,9.95
2018-05-23T16:55:19.333Z,10.20
2018-05-23T17:00:15.214Z,11.75
2018-05-23T17:05:11.166Z,11.20
2018-05-23T17:10:07.091Z,10.20
2018-05-23T17:15:02.957Z,12.50
2018-05-23T17:19:58.829Z,10.50
2018-05-23T17:24:54.712Z,10.45
2018-05-23T17:29:50.589Z,10.70
2018-05-23T17:34:46.465Z,11.38
2018-05-23T17:39:42.343Z,11.35
2018-05-23T17:44:38.214Z,12.20
2018-05-23T17:49:34.144Z,10.60
2018-05-23T17:54:30.050Z,14.02
2018-05-23T17:59:25.957Z,11.68
2018-05-23T18:04:21.840Z,11.48
2018-05-23T18:09:17.761Z,13.00
2018-05-23T18:14:13.606Z,12.23
2018-05-23T18:19:09.487Z,11.32
2018-05-23T18:24:06.253Z,13.23
2018-05-23T18:29:02.156Z,12.13
2018-05-23T18:33:58.004Z,12.10
2018-05-23T18:38:53.855Z,12.03
2018-05-23T18:43:49.744Z,13.23
2018-05-23T18:48:45.621Z,12.60
2018-05-23T18:53:41.524Z,12.83
2018-05-23T18:58:37.422Z,12.90
2018-05-23T19:03:33.280Z,13.37
2018-05-23T19:08:29.144Z,13.40
2018-05-23T19:13:25.041Z,14.03
2018-05-23T19:18:20.932Z,14.40
2018-05-23T19:23:16.824Z,13.87
2018-05-23T19:28:12.740Z,14.10
2018-05-23T19:33:08.628Z,14.87
2018-05-23T19:38:04.555Z,14.33
2018-05-23T19:43:00.446Z,13.93
2018-05-23T19:47:56.324Z,13.90
2018-05-23T19:52:52.305Z,13.23
2018-05-23T19:57:48.177Z,16.10
2018-05-23T20:02:44.099Z,15.07
2018-05-23T20:07:39.975Z,14.80
2018-05-23T20:12:35.869Z,15.63
2018-05-23T20:17:31.772Z,17.33
2018-05-23T20:22:27.641Z,13.93
2018-05-23T20:27:23.553Z,16.07
2018-05-23T20:32:19.418Z,16.50
2018-05-23T20:37:15.267Z,16.90
2018-05-23T20:42:11.156Z,16.67
2018-05-23T20:47:07.029Z,17.07
2018-05-23T20:52:02.885Z,16.00
2018-05-23T20:56:58.768Z,17.67
2018-05-23T21:01:54.668Z,17.67
2018-05-23T21:06:50.517Z,17.83
2018-05-23T21:11:46.379Z,17.07
2018-05-23T21:16:42.248Z,17.33
2018-05-23T21:21:38.153Z,18.00
2018-05-23T21:26:34.065Z,18.37
2018-05-23T21:31:29.953Z,19.47
2018-05-23T21:36:25.857Z,17.80
2018-05-23T21:41:21.733Z,18.00
2018-05-23T21:46:17.648Z,17.90
2018-05-23T21:51:13.544Z,20.30
2018-05-23T21:56:09.428Z,20.03
2018-05-23T22:01:05.331Z,20.23
2018-05-23T22:06:01.231Z,19.27
2018-05-23T22:10:57.085Z,18.70
2018-05-23T22:15:52.995Z,18.60
2018-05-23T22:20:48.845Z,17.80
2018-05-23T22:25:44.750Z,18.63
2018-05-23T22:30:40.710Z,18.50
2018-05-23T22:35:36.538Z,17.53
2018-05-23T22:40:32.442Z,18.30
2018-05-23T22:45:28.312Z,20.97
2018-05-23T22:50:24.175Z,20.63
2018-05-23T22:55:20.019Z,19.00
2018-05-23T23:00:15.996Z,18.77
2018-05-23T23:05:11.866Z,18.27
2018-05-23T23:10:07.795Z,21.47
2018-05-23T23:15:03.707Z,19.60
2018-05-23T23:19:59.567Z,19.37
2018-05-23T23:24:55.421Z,19.23
2018-05-23T23:29:51.250Z,19.13
2018-05-23T23:34:47.095Z,20.83
2018-05-23T23:39:42.985Z,20.00
2018-05-23T23:44:38.844Z,20.97
2018-05-23T23:49:34.746Z,21.87
2018-05-23T23:54:30.651Z,20.83
2018-05-23T23:59:26.571Z,20.67
